Fort Hunter, New York
Current Conditions -  °F | °C
As of 8:15 AM on Tuesday 21 Oct 2014 (Local Time) from KNY0 Reporting Station
Overcast Overcast  
Wind Chill: 40°   Ceiling: 4200
Heat Index: 43°   Visibility: 10mi
Dew Point: 41°   Wind: 6mph
Humidity: 93%   Direction: 50°NE
Pressure: 29.9"   Gusts: NA
Location:  42.94°N, 74.28°W
Report Text: KNY0 211215Z AUTO 05005KT 10SM OVC042 06/05 A2990 RMK AO2 T00620052
Loading
Personal Weather Stations






























Interactive Weather Map
Tropical Storm Tracking
New forecast layout! Learn more

10-Day Weather Forecast

Advertisements
Track Severe Weather on mobile